Terminal Aerodrome Forecast
Issued by NWS San Angelo, TX

Home | Current Version | Previous Version | Text Only | Print | Product List | Glossary On
Versions: 1 2 3 4 5 6 7 8 9 10 11 12 13 14 15 16 17
000
FTUS44 KSJT 302300
TAFABI
TAF
KABI 302322Z 0100/0124 18008KT P6SM VCTS BKN070CB
      TEMPO 0100/0103 VRB25G34KT 3SM TSRA BKN040CB
     FM010500 16009KT P6SM BKN080=

USA.gov is the U.S. government's official web portal to all federal, state and local government web resources and services.